createdAt,value
2022-11-22T00:01:26.970Z,13.18
2022-11-22T00:04:12.437Z,15.18
2022-11-22T00:06:58.021Z,11.60
2022-11-22T00:09:43.258Z,10.98
2022-11-22T00:12:28.953Z,7.35
2022-11-22T00:15:14.481Z,3.15
2022-11-22T00:18:01.243Z,5.15
2022-11-22T00:20:46.824Z,9.82
2022-11-22T00:23:32.629Z,6.70
2022-11-22T00:26:17.839Z,11.45
2022-11-22T00:29:03.491Z,7.68
2022-11-22T00:31:48.972Z,6.53
2022-11-22T00:34:34.742Z,8.48
2022-11-22T00:37:20.012Z,12.52
2022-11-22T00:40:06.450Z,8.43
2022-11-22T00:42:51.805Z,8.90
2022-11-22T00:45:37.359Z,6.72
2022-11-22T00:48:23.005Z,5.95
2022-11-22T00:51:08.584Z,6.75
2022-11-22T00:53:54.059Z,10.32
2022-11-22T00:56:39.522Z,5.15
2022-11-22T00:59:25.011Z,7.00
2022-11-22T01:02:10.499Z,8.15
2022-11-22T01:04:55.966Z,7.57
2022-11-22T01:07:41.522Z,5.45
2022-11-22T01:10:27.115Z,4.70
2022-11-22T01:13:12.500Z,10.50
2022-11-22T01:16:07.160Z,8.88
2022-11-22T01:18:52.865Z,7.70
2022-11-22T01:21:38.293Z,12.30
2022-11-22T01:24:24.086Z,4.85
2022-11-22T01:27:09.827Z,7.65
2022-11-22T01:29:55.299Z,5.43
2022-11-22T01:32:40.840Z,6.20
2022-11-22T01:35:26.157Z,8.98
2022-11-22T01:38:11.996Z,4.60
2022-11-22T01:40:57.476Z,7.45
2022-11-22T01:43:43.175Z,5.47
2022-11-22T01:46:37.195Z,9.25
2022-11-22T01:49:51.676Z,8.95
2022-11-22T01:52:37.492Z,6.60
2022-11-22T01:55:23.937Z,10.65
2022-11-22T01:58:10.602Z,6.28
2022-11-22T02:00:56.369Z,10.35
2022-11-22T02:03:44.972Z,22.20
2022-11-22T02:06:46.901Z,4.20
2022-11-22T02:09:33.370Z,2.08
2022-11-22T02:12:20.833Z,4.32
2022-11-22T02:15:08.152Z,5.85
2022-11-22T02:17:53.436Z,6.82
2022-11-22T02:20:39.938Z,9.23
2022-11-22T02:23:43.535Z,7.00
2022-11-22T02:26:29.981Z,3.92
2022-11-22T02:29:15.986Z,5.15
2022-11-22T02:32:01.470Z,4.65
2022-11-22T02:34:51.368Z,6.63
2022-11-22T02:37:36.945Z,6.38
2022-11-22T02:40:23.600Z,7.97
2022-11-22T02:43:13.517Z,5.40
2022-11-22T02:46:06.712Z,6.75
2022-11-22T02:48:53.197Z,7.10
2022-11-22T02:51:38.524Z,6.57
2022-11-22T02:54:24.043Z,4.97
2022-11-22T02:57:09.596Z,6.15
2022-11-22T02:59:55.091Z,6.68
2022-11-22T03:02:40.424Z,12.52
2022-11-22T03:05:26.142Z,3.97
2022-11-22T03:08:11.452Z,3.03
2022-11-22T03:11:00.034Z,5.57
2022-11-22T03:13:45.504Z,4.60
2022-11-22T03:16:31.945Z,4.53
2022-11-22T03:19:17.602Z,6.43
2022-11-22T03:22:02.879Z,10.40
2022-11-22T03:24:48.393Z,4.22
2022-11-22T03:27:33.890Z,4.95
2022-11-22T03:30:19.190Z,5.22
2022-11-22T03:33:04.441Z,4.78
2022-11-22T03:35:49.937Z,14.80
2022-11-22T03:38:36.014Z,7.95
2022-11-22T03:41:21.189Z,5.60
2022-11-22T03:44:06.818Z,10.70
2022-11-22T03:46:52.564Z,7.93
2022-11-22T03:49:37.785Z,7.63
2022-11-22T03:52:23.137Z,5.95
2022-11-22T03:55:09.108Z,6.05
2022-11-22T03:57:54.686Z,5.40
2022-11-22T04:00:40.174Z,8.60
2022-11-22T04:03:25.917Z,4.53
2022-11-22T04:06:11.598Z,6.50
2022-11-22T04:08:56.949Z,5.13
2022-11-22T04:11:42.409Z,5.25
2022-11-22T04:14:46.286Z,5.50
2022-11-22T04:17:41.328Z,7.50
2022-11-22T04:20:48.576Z,7.18
2022-11-22T04:23:34.507Z,5.75
2022-11-22T04:26:19.881Z,7.10
2022-11-22T04:29:10.026Z,5.85
2022-11-22T04:32:14.509Z,2.65
2022-11-22T04:34:59.948Z,4.05
2022-11-22T04:37:51.586Z,4.97
2022-11-22T04:40:39.907Z,5.25
2022-11-22T04:43:45.795Z,4.60
2022-11-22T04:46:31.503Z,4.85
2022-11-22T04:49:16.756Z,11.50
2022-11-22T04:52:21.086Z,7.60
2022-11-22T04:55:06.780Z,6.65
2022-11-22T04:57:57.499Z,2.88
2022-11-22T05:00:45.268Z,6.17
2022-11-22T05:03:30.766Z,6.75
2022-11-22T05:06:15.972Z,7.90
2022-11-22T05:09:01.577Z,6.55
2022-11-22T05:11:46.775Z,9.55
2022-11-22T05:14:32.293Z,7.25
2022-11-22T05:17:17.858Z,4.63
2022-11-22T05:20:03.907Z,6.95
2022-11-22T05:23:07.794Z,8.57
2022-11-22T05:28:39.573Z,6.22
2022-11-22T05:31:27.448Z,8.25
2022-11-22T05:34:12.919Z,10.65
2022-11-22T05:36:59.092Z,4.28
2022-11-22T05:39:44.478Z,5.15
2022-11-22T05:42:29.873Z,21.33
2022-11-22T05:45:15.433Z,9.35
2022-11-22T05:48:00.846Z,7.43
2022-11-22T05:50:46.493Z,5.70
2022-11-22T05:53:32.253Z,7.70
2022-11-22T05:56:20.656Z,2.80
2022-11-22T05:59:06.368Z,5.80
2022-11-22T06:01:52.012Z,4.40
2022-11-22T06:04:37.544Z,10.23
2022-11-22T06:07:23.485Z,10.10
2022-11-22T06:10:09.663Z,6.65
2022-11-22T06:12:55.556Z,1.85
2022-11-22T06:15:41.114Z,5.60
2022-11-22T06:18:27.040Z,8.55
2022-11-22T06:21:15.508Z,3.50
2022-11-22T06:24:01.171Z,3.95
2022-11-22T06:26:46.704Z,5.03
2022-11-22T06:29:32.664Z,2.75
2022-11-22T06:32:18.317Z,2.53
2022-11-22T06:35:04.471Z,3.63
2022-11-22T06:37:50.438Z,9.18
2022-11-22T06:40:35.821Z,3.65
2022-11-22T06:43:21.272Z,6.18
2022-11-22T06:46:08.116Z,4.18
2022-11-22T06:48:54.037Z,6.43
2022-11-22T06:51:39.400Z,4.28
2022-11-22T06:54:24.796Z,3.45
2022-11-22T06:57:14.533Z,3.83
2022-11-22T07:00:00.163Z,3.15
2022-11-22T07:02:45.683Z,3.78
2022-11-22T07:05:31.361Z,4.00
2022-11-22T07:08:17.006Z,4.95
2022-11-22T07:11:13.217Z,5.15
2022-11-22T07:14:07.717Z,5.97
2022-11-22T07:16:54.928Z,6.60
2022-11-22T07:19:40.167Z,3.75
2022-11-22T07:22:29.378Z,8.00
2022-11-22T07:25:14.938Z,4.80
2022-11-22T07:28:00.486Z,5.38
2022-11-22T07:30:46.198Z,3.88
2022-11-22T07:33:34.202Z,10.02
2022-11-22T07:36:21.854Z,4.90
2022-11-22T07:39:10.175Z,5.25
2022-11-22T07:41:55.792Z,7.00
2022-11-22T07:44:41.388Z,6.03
2022-11-22T07:47:27.866Z,4.50
2022-11-22T07:50:16.425Z,6.05
2022-11-22T07:53:02.777Z,5.72
2022-11-22T07:55:52.377Z,3.20
2022-11-22T07:58:38.974Z,3.95
2022-11-22T08:01:24.902Z,6.65
2022-11-22T08:04:10.415Z,4.63
2022-11-22T08:06:57.945Z,6.25
2022-11-22T08:09:43.532Z,2.92
2022-11-22T08:12:28.834Z,6.00
2022-11-22T08:15:15.749Z,4.25
2022-11-22T08:18:01.909Z,8.65
2022-11-22T08:20:47.462Z,6.28
2022-11-22T08:23:33.144Z,5.22
2022-11-22T08:26:21.040Z,3.85
2022-11-22T08:29:13.840Z,9.02
2022-11-22T08:32:00.264Z,8.90
2022-11-22T08:34:47.441Z,4.85
2022-11-22T08:37:33.203Z,6.43
2022-11-22T08:40:18.511Z,7.90
2022-11-22T08:43:04.330Z,6.03
2022-11-22T08:45:55.444Z,9.75
2022-11-22T08:48:41.254Z,7.90
2022-11-22T08:51:26.870Z,10.07
2022-11-22T08:54:13.484Z,4.35
2022-11-22T08:56:59.331Z,3.75
2022-11-22T08:59:46.880Z,4.85
2022-11-22T09:02:33.889Z,4.53
2022-11-22T09:05:19.149Z,6.07
2022-11-22T09:11:15.721Z,4.55
2022-11-22T09:14:01.109Z,3.03
2022-11-22T09:16:46.803Z,5.88
2022-11-22T09:19:32.523Z,3.45
2022-11-22T09:22:18.444Z,3.42
2022-11-22T09:25:07.537Z,4.32
2022-11-22T09:27:53.147Z,3.50
2022-11-22T09:30:38.786Z,3.60
2022-11-22T09:33:24.024Z,6.35
2022-11-22T09:36:22.862Z,2.15
2022-11-22T09:39:09.186Z,3.28
2022-11-22T09:42:17.768Z,4.47
2022-11-22T09:45:38.190Z,3.53
2022-11-22T09:49:10.397Z,4.18
2022-11-22T09:52:19.534Z,4.15
2022-11-22T09:55:12.209Z,3.75
2022-11-22T09:58:19.761Z,3.08
2022-11-22T10:01:17.559Z,2.78
2022-11-22T10:04:05.417Z,4.05
2022-11-22T10:07:00.516Z,3.97
2022-11-22T10:10:04.786Z,4.78
2022-11-22T10:13:10.699Z,2.00
2022-11-22T10:16:30.506Z,2.65
2022-11-22T10:19:22.177Z,4.90
2022-11-22T10:22:15.082Z,2.47
2022-11-22T10:25:23.427Z,1.88
2022-11-22T10:28:35.631Z,3.65
2022-11-22T10:31:46.778Z,1.05
2022-11-22T10:34:35.585Z,5.70
2022-11-22T10:37:38.460Z,5.72
2022-11-22T10:40:55.224Z,4.63
2022-11-22T10:44:04.143Z,4.90
2022-11-22T10:46:57.420Z,6.40
2022-11-22T10:49:50.309Z,6.43
2022-11-22T10:53:04.473Z,3.83
2022-11-22T10:56:00.896Z,6.30
2022-11-22T10:58:49.040Z,3.10
2022-11-22T11:01:52.538Z,3.95
2022-11-22T11:04:40.063Z,3.58
2022-11-22T11:07:26.596Z,7.05
2022-11-22T11:10:40.579Z,7.75
2022-11-22T11:13:31.707Z,6.30
2022-11-22T11:16:28.768Z,7.07
2022-11-22T11:19:19.057Z,4.97
2022-11-22T11:22:08.186Z,5.22
2022-11-22T11:24:53.577Z,6.47
2022-11-22T11:27:42.552Z,5.57
2022-11-22T11:30:28.380Z,6.32
2022-11-22T11:33:27.661Z,4.30
2022-11-22T11:36:22.187Z,7.55
2022-11-22T11:39:20.827Z,7.85
2022-11-22T11:42:34.681Z,6.22
2022-11-22T11:45:30.442Z,4.00
2022-11-22T11:48:29.507Z,3.17
2022-11-22T11:51:19.678Z,4.55
2022-11-22T11:54:18.729Z,4.45
2022-11-22T11:57:05.711Z,4.65
2022-11-22T11:59:53.226Z,5.20
2022-11-22T12:02:46.358Z,6.45
2022-11-22T12:05:33.374Z,8.98
2022-11-22T12:08:37.329Z,3.78
2022-11-22T12:11:37.420Z,7.05
2022-11-22T12:14:42.690Z,8.68
2022-11-22T12:17:36.961Z,5.82
2022-11-22T12:20:28.153Z,3.05
2022-11-22T12:23:23.785Z,6.80
2022-11-22T12:26:08.960Z,6.00
2022-11-22T12:28:55.291Z,4.10
2022-11-22T12:32:01.634Z,6.18
2022-11-22T12:34:59.770Z,8.57
2022-11-22T12:38:01.386Z,3.78
2022-11-22T12:41:00.222Z,5.57
2022-11-22T12:43:56.988Z,3.58
2022-11-22T12:46:51.674Z,4.18
2022-11-22T12:49:45.784Z,5.72
2022-11-22T12:52:55.180Z,7.55
2022-11-22T12:56:16.206Z,6.70
2022-11-22T12:59:10.723Z,4.30
2022-11-22T13:02:17.192Z,8.20
2022-11-22T13:05:22.116Z,6.30
2022-11-22T13:08:16.310Z,8.25
2022-11-22T13:11:33.980Z,4.07
2022-11-22T13:14:27.481Z,5.63
2022-11-22T13:17:15.668Z,7.28
2022-11-22T13:20:08.359Z,4.70
2022-11-22T13:23:00.267Z,8.73
2022-11-22T13:25:55.698Z,8.15
2022-11-22T13:28:42.271Z,8.20
2022-11-22T13:31:28.113Z,8.27
2022-11-22T13:34:26.590Z,4.57
2022-11-22T13:37:15.540Z,5.93
2022-11-22T13:40:30.599Z,5.43
2022-11-22T13:43:22.283Z,8.30
2022-11-22T13:46:46.699Z,5.10
2022-11-22T13:49:46.631Z,6.88
2022-11-22T13:52:52.574Z,6.10
2022-11-22T13:55:42.269Z,6.53
2022-11-22T13:58:50.291Z,4.55
2022-11-22T14:01:36.442Z,5.03
2022-11-22T14:04:31.816Z,5.53
2022-11-22T14:07:39.633Z,3.63
2022-11-22T14:10:36.996Z,4.70
2022-11-22T14:13:52.296Z,4.03
2022-11-22T14:16:54.702Z,8.10
2022-11-22T14:20:03.596Z,6.27
2022-11-22T14:23:40.067Z,5.53
2022-11-22T14:26:44.846Z,5.95
2022-11-22T14:29:53.480Z,5.97
2022-11-22T14:32:53.179Z,6.82
2022-11-22T14:35:59.141Z,3.67
2022-11-22T14:38:45.265Z,5.22
2022-11-22T14:41:36.402Z,6.30
2022-11-22T14:44:35.316Z,7.18
2022-11-22T14:47:21.917Z,6.50
2022-11-22T14:50:34.324Z,3.38
2022-11-22T14:54:04.639Z,6.35
2022-11-22T14:56:50.815Z,4.68
2022-11-22T15:00:15.089Z,2.63
2022-11-22T15:03:03.564Z,3.75
2022-11-22T15:09:21.957Z,6.00
2022-11-22T15:09:54.380Z,4.40
2022-11-22T15:12:45.568Z,7.53
2022-11-22T15:59:58.369Z,6.00
2022-11-22T16:02:49.983Z,11.30
2022-11-22T16:06:08.697Z,14.88
2022-11-22T16:08:51.215Z,8.27
2022-11-22T16:14:48.783Z,11.25
2022-11-22T16:17:37.952Z,7.18
2022-11-22T16:20:23.633Z,9.70
2022-11-22T16:23:09.537Z,12.32
2022-11-22T16:26:11.961Z,8.48
2022-11-22T16:29:35.552Z,9.57
2022-11-22T16:32:21.398Z,7.78
2022-11-22T16:35:28.546Z,8.30
2022-11-22T16:38:15.124Z,10.55
2022-11-22T16:41:01.739Z,10.13
2022-11-22T16:43:51.625Z,7.38
2022-11-22T16:46:36.754Z,11.70
2022-11-22T16:49:22.849Z,15.13
2022-11-22T16:52:12.616Z,9.90
2022-11-22T16:54:58.317Z,10.75
2022-11-22T16:57:44.504Z,10.18
2022-11-22T17:00:30.540Z,10.73
2022-11-22T17:03:20.967Z,12.25
2022-11-22T17:06:10.465Z,8.45
2022-11-22T17:08:59.843Z,15.43
2022-11-22T17:11:46.602Z,14.70
2022-11-22T17:14:32.562Z,13.32
2022-11-22T17:17:19.166Z,18.30
2022-11-22T17:20:15.984Z,16.80
2022-11-22T17:23:03.996Z,9.50
2022-11-22T17:25:49.797Z,12.38
2022-11-22T17:28:36.113Z,11.48
2022-11-22T17:31:23.356Z,13.00
2022-11-22T17:34:09.796Z,10.38
2022-11-22T17:36:55.677Z,11.73
2022-11-22T17:39:41.310Z,14.05
2022-11-22T17:42:26.909Z,13.43
2022-11-22T17:45:12.517Z,11.60
2022-11-22T17:47:58.027Z,14.85
2022-11-22T17:50:48.065Z,16.05
2022-11-22T17:53:33.829Z,15.63
2022-11-22T17:56:19.353Z,17.25
2022-11-22T17:59:04.827Z,12.80
2022-11-22T18:01:50.455Z,12.20
2022-11-22T18:04:36.266Z,12.65
2022-11-22T18:07:23.943Z,16.05
2022-11-22T18:10:10.293Z,13.68
2022-11-22T18:13:19.711Z,11.25
2022-11-22T18:16:03.661Z,17.10
2022-11-22T18:18:58.106Z,10.73
2022-11-22T18:21:43.817Z,12.05
2022-11-22T18:24:29.240Z,10.68
2022-11-22T18:27:15.062Z,12.38
2022-11-22T18:30:00.372Z,10.25
2022-11-22T18:32:45.918Z,10.50
2022-11-22T18:35:31.709Z,9.68
2022-11-22T18:38:17.442Z,14.20
2022-11-22T18:41:04.366Z,12.02
2022-11-22T18:43:49.956Z,14.77
2022-11-22T18:46:35.119Z,10.93
2022-11-22T18:49:20.744Z,12.98
2022-11-22T18:52:06.350Z,9.85
2022-11-22T18:54:52.328Z,12.70
2022-11-22T18:57:37.801Z,10.07
2022-11-22T19:00:23.203Z,12.25
2022-11-22T19:03:11.501Z,9.25
2022-11-22T19:05:56.738Z,14.00
2022-11-22T19:08:44.041Z,14.75
2022-11-22T19:11:32.150Z,18.48
2022-11-22T19:14:17.783Z,9.25
2022-11-22T19:17:03.357Z,15.88
2022-11-22T19:19:48.638Z,14.07
2022-11-22T19:22:34.092Z,15.93
2022-11-22T19:25:19.571Z,17.95
2022-11-22T19:28:05.474Z,15.30
2022-11-22T19:30:50.745Z,18.08
2022-11-22T19:33:37.048Z,14.50
2022-11-22T19:36:27.898Z,15.25
2022-11-22T19:39:19.944Z,16.75
2022-11-22T19:42:05.410Z,21.05
2022-11-22T19:44:51.132Z,14.30
2022-11-22T19:47:36.946Z,16.13
2022-11-22T19:50:22.216Z,16.55
2022-11-22T19:53:08.442Z,16.08
2022-11-22T19:55:53.829Z,17.30
2022-11-22T19:58:39.382Z,16.90
2022-11-22T20:01:26.480Z,15.43
2022-11-22T20:04:14.233Z,16.08
2022-11-22T20:06:59.925Z,16.13
2022-11-22T20:09:45.364Z,17.30
2022-11-22T20:12:31.001Z,15.13
2022-11-22T20:15:17.202Z,17.05
2022-11-22T20:18:02.309Z,20.20
2022-11-22T20:20:47.854Z,18.30
2022-11-22T20:23:33.728Z,16.70
2022-11-22T20:26:20.380Z,17.38
2022-11-22T20:29:08.701Z,13.93
2022-11-22T20:31:54.957Z,14.68
2022-11-22T20:34:40.558Z,20.77
2022-11-22T20:37:26.148Z,15.68
2022-11-22T20:40:11.630Z,15.05
2022-11-22T20:42:57.095Z,14.60
2022-11-22T20:45:42.833Z,21.17
2022-11-22T20:48:28.913Z,19.38
2022-11-22T20:51:19.093Z,14.70
2022-11-22T20:54:04.989Z,14.88
2022-11-22T20:56:50.225Z,13.60
2022-11-22T20:59:35.940Z,13.10
2022-11-22T21:02:21.605Z,18.30
2022-11-22T21:05:08.002Z,10.98
2022-11-22T21:07:53.665Z,18.88
2022-11-22T21:10:39.115Z,19.52
2022-11-22T21:13:24.714Z,14.60
2022-11-22T21:16:22.776Z,15.68
2022-11-22T21:19:09.390Z,16.45
2022-11-22T21:21:54.879Z,12.02
2022-11-22T21:24:40.422Z,15.15
2022-11-22T21:27:25.916Z,13.23
2022-11-22T21:30:11.951Z,12.75
2022-11-22T21:32:57.356Z,12.85
2022-11-22T21:35:45.650Z,13.98
2022-11-22T21:38:34.717Z,12.05
2022-11-22T21:44:27.169Z,14.25
2022-11-22T21:47:12.680Z,16.90
2022-11-22T21:49:58.061Z,13.10
2022-11-22T21:52:43.659Z,13.13
2022-11-22T21:55:29.389Z,14.45
2022-11-22T21:58:14.826Z,20.83
2022-11-22T22:01:08.256Z,19.10
2022-11-22T22:03:56.707Z,15.60
2022-11-22T22:06:46.058Z,17.25
2022-11-22T22:09:31.776Z,17.50
2022-11-22T22:12:17.564Z,13.93
2022-11-22T22:15:03.310Z,19.88
2022-11-22T22:17:51.891Z,18.88
2022-11-22T22:20:37.536Z,16.35
2022-11-22T22:23:24.294Z,16.30
2022-11-22T22:26:15.697Z,19.30
2022-11-22T22:29:00.952Z,17.25
2022-11-22T22:31:46.646Z,16.00
2022-11-22T22:34:31.928Z,26.92
2022-11-22T22:37:17.766Z,18.52
2022-11-22T22:40:03.463Z,19.55
2022-11-22T22:42:48.638Z,17.95
2022-11-22T22:45:35.545Z,17.90
2022-11-22T22:48:21.029Z,22.90
2022-11-22T22:51:10.458Z,20.67
2022-11-22T22:53:59.409Z,14.50
2022-11-22T22:56:45.009Z,19.05
2022-11-22T22:59:30.485Z,17.05
2022-11-22T23:02:16.201Z,21.50
2022-11-22T23:05:01.877Z,18.80
2022-11-22T23:07:47.441Z,13.23
2022-11-22T23:10:33.370Z,17.48
2022-11-22T23:13:18.771Z,17.83
2022-11-22T23:16:06.455Z,14.02
2022-11-22T23:18:51.900Z,21.50
2022-11-22T23:21:37.734Z,15.45
2022-11-22T23:24:23.308Z,17.27
2022-11-22T23:27:08.896Z,19.13
2022-11-22T23:29:54.395Z,15.32
2022-11-22T23:32:39.953Z,15.23
2022-11-22T23:35:25.408Z,25.42
2022-11-22T23:38:10.755Z,19.20
2022-11-22T23:40:56.279Z,18.33
2022-11-22T23:43:42.189Z,17.42
2022-11-22T23:46:28.782Z,17.83
2022-11-22T23:49:14.321Z,17.10
2022-11-22T23:51:59.847Z,19.23
2022-11-22T23:54:45.424Z,21.35
2022-11-22T23:57:30.844Z,19.63
